createdAt,value
2018-12-01T00:00:22.687Z,36.63
2018-12-01T00:02:51.421Z,41.37
2018-12-01T00:05:19.809Z,40.27
2018-12-01T00:07:48.707Z,41.27
2018-12-01T00:10:17.158Z,37.57
2018-12-01T00:12:45.578Z,37.70
2018-12-01T00:15:15.631Z,34.73
2018-12-01T00:17:43.926Z,37.93
2018-12-01T00:20:13.562Z,34.90
2018-12-01T00:22:42.012Z,36.30
2018-12-01T00:25:10.389Z,36.60
2018-12-01T00:27:38.692Z,38.00
2018-12-01T00:30:12.060Z,38.43
2018-12-01T00:32:40.475Z,39.53
2018-12-01T00:35:09.962Z,36.90
2018-12-01T00:37:38.329Z,36.17
2018-12-01T00:40:21.980Z,38.87
2018-12-01T00:42:50.348Z,36.90
2018-12-01T00:45:21.621Z,38.57
2018-12-01T00:47:51.062Z,40.27
2018-12-01T00:50:20.607Z,40.17
2018-12-01T00:52:49.677Z,35.80
2018-12-01T00:55:18.785Z,36.17
2018-12-01T00:57:47.167Z,36.07
2018-12-01T01:00:20.130Z,38.97
2018-12-01T01:02:51.031Z,35.90
2018-12-01T01:05:20.193Z,36.03
2018-12-01T01:07:48.545Z,35.00
2018-12-01T01:10:16.901Z,39.13
2018-12-01T01:12:45.220Z,35.73
2018-12-01T01:15:14.675Z,31.63
2018-12-01T01:17:43.003Z,32.27
2018-12-01T01:20:12.508Z,34.23
2018-12-01T01:22:40.910Z,33.60
2018-12-01T01:25:10.355Z,32.30
2018-12-01T01:27:38.757Z,33.57
2018-12-01T01:30:11.736Z,32.07
2018-12-01T01:32:40.173Z,31.63
2018-12-01T01:35:08.520Z,33.33
2018-12-01T01:37:36.832Z,31.47
2018-12-01T01:40:06.985Z,34.10
2018-12-01T01:42:35.398Z,32.77
2018-12-01T01:45:03.745Z,31.27
2018-12-01T01:47:32.203Z,29.17
2018-12-01T01:50:00.501Z,31.97
2018-12-01T01:52:28.828Z,32.77
2018-12-01T01:54:57.174Z,31.60
2018-12-01T01:57:25.527Z,30.17
2018-12-01T01:59:53.842Z,32.93
2018-12-01T02:02:22.211Z,29.40
2018-12-01T02:04:50.561Z,30.63
2018-12-01T02:07:18.953Z,31.63
2018-12-01T02:09:47.293Z,30.23
2018-12-01T02:12:15.604Z,33.63
2018-12-01T02:14:43.933Z,30.80
2018-12-01T02:17:12.371Z,32.47
2018-12-01T02:19:40.693Z,29.40
2018-12-01T02:22:09.150Z,30.13
2018-12-01T02:24:37.912Z,33.70
2018-12-01T02:27:06.760Z,28.03
2018-12-01T02:29:35.126Z,32.00
2018-12-01T02:32:03.627Z,25.13
2018-12-01T02:34:32.007Z,32.37
2018-12-01T02:37:00.442Z,28.27
2018-12-01T02:39:28.844Z,26.80
2018-12-01T02:41:57.177Z,29.47
2018-12-01T02:44:36.908Z,33.57
2018-12-01T02:47:08.939Z,30.57
2018-12-01T02:49:37.666Z,33.37
2018-12-01T02:52:06.829Z,28.33
2018-12-01T02:54:35.376Z,28.10
2018-12-01T02:57:03.804Z,30.33
2018-12-01T02:59:32.254Z,31.20
2018-12-01T03:02:00.603Z,27.97
2018-12-01T03:04:28.905Z,30.93
2018-12-01T03:06:57.298Z,27.50
2018-12-01T03:09:25.648Z,29.37
2018-12-01T03:11:54.013Z,29.50
2018-12-01T03:14:22.401Z,26.73
2018-12-01T03:16:50.748Z,31.10
2018-12-01T03:19:19.077Z,30.10
2018-12-01T03:21:47.572Z,26.20
2018-12-01T03:24:15.868Z,29.87
2018-12-01T03:26:44.198Z,30.47
2018-12-01T03:29:12.551Z,29.43
2018-12-01T03:31:40.865Z,30.10
2018-12-01T03:34:09.155Z,28.30
2018-12-01T03:36:37.512Z,29.17
2018-12-01T03:39:08.868Z,31.57
2018-12-01T03:41:37.681Z,29.43
2018-12-01T03:44:06.656Z,30.90
2018-12-01T03:46:34.969Z,31.93
2018-12-01T03:49:03.287Z,32.73
2018-12-01T03:51:31.601Z,30.17
2018-12-01T03:54:00.045Z,33.30
2018-12-01T03:56:28.603Z,33.43
2018-12-01T03:58:57.014Z,32.43
2018-12-01T04:01:25.348Z,35.47
2018-12-01T04:03:53.708Z,32.60
2018-12-01T04:06:22.053Z,34.47
2018-12-01T04:08:50.513Z,31.37
2018-12-01T04:11:18.868Z,33.10
2018-12-01T04:13:47.272Z,34.43
2018-12-01T04:16:15.669Z,40.57
2018-12-01T04:18:44.028Z,35.87
2018-12-01T04:21:12.337Z,31.17
2018-12-01T04:23:40.653Z,28.47
2018-12-01T04:26:09.037Z,29.73
2018-12-01T04:28:37.414Z,32.07
2018-12-01T04:31:05.934Z,29.93
2018-12-01T04:33:34.442Z,34.73
2018-12-01T04:36:02.773Z,33.27
2018-12-01T04:38:31.152Z,30.70
2018-12-01T04:40:59.504Z,32.90
2018-12-01T04:43:27.918Z,32.33
2018-12-01T04:45:56.287Z,29.47
2018-12-01T04:48:24.673Z,30.40
2018-12-01T04:50:52.991Z,32.80
2018-12-01T04:53:21.322Z,28.80
2018-12-01T04:55:49.629Z,32.33
2018-12-01T04:58:17.947Z,29.00
2018-12-01T05:00:46.262Z,27.73
2018-12-01T05:03:14.623Z,32.67
2018-12-01T05:05:42.989Z,28.43
2018-12-01T05:08:11.365Z,27.57
2018-12-01T05:10:39.662Z,28.63
2018-12-01T05:13:08.041Z,27.77
2018-12-01T05:15:37.149Z,28.73
2018-12-01T05:18:06.122Z,29.17
2018-12-01T05:20:34.444Z,29.00
2018-12-01T05:23:02.793Z,28.57
2018-12-01T05:25:31.116Z,26.37
2018-12-01T05:27:59.434Z,32.10
2018-12-01T05:30:27.871Z,26.97
2018-12-01T05:32:56.268Z,26.87
2018-12-01T05:35:25.374Z,27.23
2018-12-01T05:37:53.751Z,30.33
2018-12-01T05:40:22.413Z,28.90
2018-12-01T05:42:50.798Z,24.43
2018-12-01T05:45:20.169Z,26.90
2018-12-01T05:47:48.859Z,26.17
2018-12-01T05:50:25.525Z,27.43
2018-12-01T05:52:54.853Z,25.37
2018-12-01T05:55:23.260Z,28.50
2018-12-01T05:57:51.695Z,27.47
2018-12-01T06:00:20.386Z,31.17
2018-12-01T06:02:48.766Z,25.70
2018-12-01T06:05:17.117Z,27.60
2018-12-01T06:07:45.763Z,28.63
2018-12-01T06:10:18.017Z,30.37
2018-12-01T06:12:47.063Z,27.70
2018-12-01T06:15:16.204Z,25.17
2018-12-01T06:17:44.552Z,37.57
2018-12-01T06:20:18.268Z,30.57
2018-12-01T06:22:46.612Z,36.33
2018-12-01T06:25:16.203Z,28.43
2018-12-01T06:27:44.547Z,28.53
2018-12-01T06:30:17.934Z,29.47
2018-12-01T06:32:46.924Z,33.57
2018-12-01T06:35:15.317Z,29.87
2018-12-01T06:37:43.618Z,28.53
2018-12-01T06:40:20.449Z,30.97
2018-12-01T06:42:49.320Z,29.20
2018-12-01T06:45:18.261Z,31.00
2018-12-01T06:47:46.601Z,30.07
2018-12-01T06:50:16.002Z,31.00
2018-12-01T06:52:44.442Z,33.10
2018-12-01T06:55:13.712Z,29.53
2018-12-01T06:57:42.540Z,31.17
2018-12-01T07:00:13.242Z,30.10
2018-12-01T07:02:43.100Z,31.00
2018-12-01T07:05:12.534Z,40.03
2018-12-01T07:07:41.142Z,42.17
2018-12-01T07:10:11.836Z,36.40
2018-12-01T07:12:42.316Z,37.47
2018-12-01T07:15:13.769Z,33.53
2018-12-01T07:17:43.961Z,38.83
2018-12-01T07:20:12.881Z,31.97
2018-12-01T07:22:41.292Z,30.80
2018-12-01T07:25:09.914Z,27.97
2018-12-01T07:27:38.208Z,29.67
2018-12-01T07:30:11.144Z,29.77
2018-12-01T07:32:39.550Z,27.83
2018-12-01T07:35:08.704Z,28.53
2018-12-01T07:37:37.287Z,29.23
2018-12-01T07:40:10.651Z,28.40
2018-12-01T07:42:39.094Z,25.90
2018-12-01T07:45:09.961Z,28.37
2018-12-01T07:47:38.395Z,24.20
2018-12-01T07:50:10.719Z,24.47
2018-12-01T07:52:39.233Z,23.97
2018-12-01T07:55:07.701Z,26.00
2018-12-01T07:57:36.031Z,25.83
2018-12-01T08:00:06.281Z,27.30
2018-12-01T08:02:34.653Z,26.80
2018-12-01T08:05:03.434Z,27.00
2018-12-01T08:07:31.856Z,24.17
2018-12-01T08:10:00.322Z,24.90
2018-12-01T08:12:28.695Z,24.47
2018-12-01T08:14:58.349Z,26.03
2018-12-01T08:17:29.250Z,25.53
2018-12-01T08:19:57.969Z,28.47
2018-12-01T08:22:27.017Z,29.17
2018-12-01T08:24:55.720Z,23.93
2018-12-01T08:27:24.076Z,28.30
2018-12-01T08:29:52.676Z,23.57
2018-12-01T08:32:21.725Z,28.17
2018-12-01T08:34:50.105Z,24.83
2018-12-01T08:37:19.489Z,24.90
2018-12-01T08:39:50.563Z,26.53
2018-12-01T08:42:18.894Z,24.17
2018-12-01T08:44:47.541Z,24.57
2018-12-01T08:47:15.905Z,24.93
2018-12-01T08:49:44.527Z,22.13
2018-12-01T08:52:12.985Z,23.80
2018-12-01T08:54:41.594Z,22.03
2018-12-01T08:57:10.075Z,24.97
2018-12-01T08:59:39.534Z,22.63
2018-12-01T09:02:11.798Z,24.20
2018-12-01T09:04:40.338Z,24.90
2018-12-01T09:07:09.375Z,25.13
2018-12-01T09:09:37.721Z,23.53
2018-12-01T09:12:06.855Z,20.83
2018-12-01T09:14:35.146Z,22.17
2018-12-01T09:17:03.487Z,21.90
2018-12-01T09:19:31.769Z,19.03
2018-12-01T09:22:00.113Z,23.10
2018-12-01T09:24:28.418Z,24.20
2018-12-01T09:26:56.761Z,21.17
2018-12-01T09:29:25.236Z,24.50
2018-12-01T09:31:54.016Z,21.87
2018-12-01T09:34:22.358Z,30.70
2018-12-01T09:36:50.863Z,27.33
2018-12-01T09:39:21.651Z,19.60
2018-12-01T09:41:50.262Z,19.83
2018-12-01T09:44:18.631Z,25.73
2018-12-01T09:46:47.082Z,32.53
2018-12-01T09:49:15.552Z,27.17
2018-12-01T09:51:44.038Z,19.50
2018-12-01T09:54:12.477Z,15.60
2018-12-01T09:56:40.808Z,16.83
2018-12-01T09:59:09.127Z,12.97
2018-12-01T10:01:37.464Z,15.43
2018-12-01T10:04:06.295Z,14.20
2018-12-01T10:06:34.702Z,13.10
2018-12-01T10:09:03.161Z,11.50
2018-12-01T10:11:31.516Z,10.47
2018-12-01T10:13:59.834Z,11.23
2018-12-01T10:16:28.405Z,11.47
2018-12-01T10:18:56.779Z,14.43
2018-12-01T10:21:25.109Z,11.93
2018-12-01T10:23:53.576Z,8.60
2018-12-01T10:26:21.969Z,14.97
2018-12-01T10:28:50.306Z,12.93
2018-12-01T10:31:18.804Z,18.03
2018-12-01T10:33:47.179Z,9.83
2018-12-01T10:36:15.637Z,8.90
2018-12-01T10:38:43.952Z,14.97
2018-12-01T10:41:12.294Z,14.97
2018-12-01T10:43:40.662Z,33.10
2018-12-01T10:46:08.984Z,88.10
2018-12-01T10:48:37.363Z,16.17
2018-12-01T10:51:05.987Z,25.07
2018-12-01T10:53:34.337Z,13.07
2018-12-01T10:56:02.748Z,10.23
2018-12-01T10:58:31.096Z,10.93
2018-12-01T11:01:04.811Z,11.50
2018-12-01T11:03:38.373Z,10.77
2018-12-01T11:06:11.102Z,9.20
2018-12-01T11:08:39.578Z,10.97
2018-12-01T11:11:07.982Z,14.33
2018-12-01T11:13:36.401Z,9.27
2018-12-01T11:16:06.074Z,10.43
2018-12-01T11:18:34.454Z,10.17
2018-12-01T11:21:02.853Z,11.63
2018-12-01T11:23:31.230Z,8.27
2018-12-01T11:25:59.570Z,11.07
2018-12-01T11:28:28.224Z,8.40
2018-12-01T11:30:56.757Z,11.47
2018-12-01T11:33:25.137Z,11.47
2018-12-01T11:35:54.395Z,10.93
2018-12-01T11:38:22.735Z,9.97
2018-12-01T11:40:51.242Z,8.50
2018-12-01T11:43:19.638Z,15.93
2018-12-01T11:45:48.153Z,9.80
2018-12-01T11:48:16.594Z,10.43
2018-12-01T11:50:44.966Z,11.37
2018-12-01T11:53:13.858Z,10.87
2018-12-01T11:55:42.174Z,10.13
2018-12-01T11:58:10.632Z,12.40
2018-12-01T12:00:39.187Z,11.80
2018-12-01T12:03:07.688Z,8.60
2018-12-01T12:05:36.116Z,12.13
2018-12-01T12:08:19.375Z,12.97
2018-12-01T12:10:47.702Z,8.27
2018-12-01T12:13:16.083Z,12.23
2018-12-01T12:15:44.731Z,17.10
2018-12-01T12:18:13.275Z,8.90
2018-12-01T12:20:41.761Z,11.30
2018-12-01T12:23:10.231Z,11.50
2018-12-01T12:25:38.529Z,17.27
2018-12-01T12:28:07.252Z,9.13
2018-12-01T12:30:35.914Z,9.43
2018-12-01T12:33:04.378Z,12.00
2018-12-01T12:35:32.800Z,10.77
2018-12-01T12:38:01.360Z,13.10
2018-12-01T12:40:29.796Z,13.50
2018-12-01T12:43:00.049Z,10.97
2018-12-01T12:45:28.524Z,11.03
2018-12-01T12:47:56.990Z,8.53
2018-12-01T12:50:25.336Z,13.93
2018-12-01T12:52:54.764Z,8.93
2018-12-01T12:55:27.276Z,9.77
2018-12-01T12:57:55.802Z,8.97
2018-12-01T13:00:25.016Z,12.13
2018-12-01T13:02:57.589Z,8.83
2018-12-01T13:05:33.908Z,10.17
2018-12-01T13:08:02.698Z,11.97
2018-12-01T13:10:31.221Z,11.63
2018-12-01T13:12:59.695Z,8.20
2018-12-01T13:15:28.120Z,8.33
2018-12-01T13:17:56.550Z,8.03
2018-12-01T13:20:25.458Z,10.77
2018-12-01T13:22:55.297Z,10.37
2018-12-01T13:25:23.622Z,12.17
2018-12-01T13:27:53.782Z,8.30
2018-12-01T13:30:24.608Z,62.50
2018-12-01T13:32:53.095Z,22.93
2018-12-01T13:35:21.577Z,26.63
2018-12-01T13:37:50.057Z,11.80
2018-12-01T13:40:18.395Z,10.40
2018-12-01T13:42:47.169Z,11.77
2018-12-01T13:45:17.429Z,8.90
2018-12-01T13:47:47.076Z,17.57
2018-12-01T13:50:17.257Z,18.90
2018-12-01T13:52:50.182Z,10.83
2018-12-01T13:55:18.622Z,11.10
2018-12-01T13:57:47.600Z,15.07
2018-12-01T14:00:16.777Z,12.60
2018-12-01T14:02:45.145Z,13.03
2018-12-01T14:05:13.773Z,11.00
2018-12-01T14:07:42.130Z,11.50
2018-12-01T14:10:13.702Z,8.83
2018-12-01T14:12:42.409Z,8.93
2018-12-01T14:15:15.349Z,7.87
2018-12-01T14:17:43.777Z,10.73
2018-12-01T14:20:13.464Z,8.80
2018-12-01T14:22:41.917Z,9.80
2018-12-01T14:25:11.245Z,8.33
2018-12-01T14:27:40.398Z,11.30
2018-12-01T14:30:11.999Z,9.57
2018-12-01T14:32:40.408Z,7.20
2018-12-01T14:35:26.004Z,8.60
2018-12-01T14:37:58.000Z,7.40
2018-12-01T14:40:26.476Z,8.87
2018-12-01T14:42:54.824Z,17.03
2018-12-01T14:45:23.221Z,12.77
2018-12-01T14:47:51.599Z,45.93
2018-12-01T14:50:20.105Z,16.20
2018-12-01T14:52:48.575Z,10.53
2018-12-01T14:55:17.734Z,11.70
2018-12-01T14:57:47.438Z,8.90
2018-12-01T15:00:18.042Z,9.40
2018-12-01T15:02:46.746Z,7.90
2018-12-01T15:05:15.195Z,8.40
2018-12-01T15:07:43.811Z,9.20
2018-12-01T15:10:17.197Z,8.37
2018-12-01T15:12:45.606Z,6.67
2018-12-01T15:15:15.182Z,7.00
2018-12-01T15:17:43.730Z,9.80
2018-12-01T15:20:13.294Z,7.70
2018-12-01T15:22:42.096Z,9.90
2018-12-01T15:25:13.033Z,6.97
2018-12-01T15:27:41.479Z,11.03
2018-12-01T15:30:28.052Z,8.07
2018-12-01T15:33:14.595Z,7.57
2018-12-01T15:35:44.477Z,11.50
2018-12-01T15:38:14.250Z,10.23
2018-12-01T15:40:43.429Z,7.57
2018-12-01T15:43:11.915Z,9.43
2018-12-01T15:45:40.308Z,7.27
2018-12-01T15:48:08.808Z,11.50
2018-12-01T15:50:37.131Z,6.40
2018-12-01T15:53:08.013Z,6.93
2018-12-01T15:55:36.430Z,6.57
2018-12-01T15:58:04.853Z,8.50
2018-12-01T16:00:33.234Z,7.23
2018-12-01T16:03:01.744Z,7.43
2018-12-01T16:05:30.091Z,7.83
2018-12-01T16:07:59.286Z,10.20
2018-12-01T16:10:28.447Z,6.80
2018-12-01T16:12:58.433Z,9.03
2018-12-01T16:15:29.424Z,9.00
2018-12-01T16:17:57.961Z,9.67
2018-12-01T16:20:26.655Z,9.67
2018-12-01T16:22:55.055Z,9.90
2018-12-01T16:25:24.480Z,14.97
2018-12-01T16:27:52.797Z,9.43
2018-12-01T16:30:26.828Z,11.70
2018-12-01T16:32:57.374Z,10.20
2018-12-01T16:35:25.739Z,10.87
2018-12-01T16:37:54.121Z,12.60
2018-12-01T16:40:29.371Z,9.40
2018-12-01T16:42:59.111Z,14.20
2018-12-01T16:45:27.709Z,13.67
2018-12-01T16:47:56.233Z,10.13
2018-12-01T16:50:24.653Z,11.03
2018-12-01T16:52:52.991Z,15.37
2018-12-01T16:55:21.475Z,12.37
2018-12-01T16:57:49.927Z,10.43
2018-12-01T17:00:19.585Z,12.77
2018-12-01T17:02:50.419Z,12.37
2018-12-01T17:05:19.874Z,11.30
2018-12-01T17:07:48.663Z,11.33
2018-12-01T17:10:18.489Z,9.77
2018-12-01T17:12:48.002Z,12.00
2018-12-01T17:15:17.629Z,11.10
2018-12-01T17:17:46.388Z,21.33
2018-12-01T17:20:16.256Z,8.90
2018-12-01T17:22:49.256Z,12.03
2018-12-01T17:25:18.142Z,12.63
2018-12-01T17:27:47.356Z,11.67
2018-12-01T17:30:27.518Z,10.83
2018-12-01T17:32:56.987Z,9.90
2018-12-01T17:35:30.247Z,9.43
2018-12-01T17:38:01.095Z,9.30
2018-12-01T17:41:32.745Z,9.07
2018-12-01T17:44:04.102Z,9.60
2018-12-01T17:46:33.618Z,9.97
2018-12-01T17:49:02.200Z,8.27
2018-12-01T17:51:30.612Z,8.93
2018-12-01T17:54:17.899Z,14.87
2018-12-01T17:56:47.103Z,8.07
2018-12-01T17:59:15.464Z,11.07
2018-12-01T18:01:43.851Z,14.33
2018-12-01T18:04:12.719Z,11.40
2018-12-01T18:06:42.355Z,12.40
2018-12-01T18:09:10.849Z,15.20
2018-12-01T18:11:39.706Z,11.80
2018-12-01T18:14:10.084Z,8.20
2018-12-01T18:16:38.703Z,12.37
2018-12-01T18:19:16.271Z,14.30
2018-12-01T18:21:45.241Z,12.00
2018-12-01T18:24:13.571Z,12.43
2018-12-01T18:26:41.934Z,12.53
2018-12-01T18:29:10.383Z,11.27
2018-12-01T18:31:38.841Z,14.23
2018-12-01T18:34:12.585Z,18.33
2018-12-01T18:36:41.105Z,12.70
2018-12-01T18:39:13.453Z,12.37
2018-12-01T18:41:42.031Z,13.10
2018-12-01T18:44:10.584Z,16.07
2018-12-01T18:46:39.026Z,12.50
2018-12-01T18:49:07.755Z,15.03
2018-12-01T18:51:36.228Z,15.37
2018-12-01T18:54:05.043Z,17.37
2018-12-01T18:56:33.400Z,13.70
2018-12-01T18:59:01.761Z,12.57
2018-12-01T19:01:30.185Z,11.63
2018-12-01T19:03:58.573Z,10.00
2018-12-01T19:06:27.008Z,14.57
2018-12-01T19:08:55.521Z,13.90
2018-12-01T19:11:23.949Z,13.70
2018-12-01T19:13:52.399Z,12.87
2018-12-01T19:16:20.758Z,19.93
2018-12-01T19:18:49.286Z,16.07
2018-12-01T19:21:17.645Z,10.37
2018-12-01T19:23:46.504Z,13.10
2018-12-01T19:26:15.076Z,16.43
2018-12-01T19:28:43.561Z,23.70
2018-12-01T19:31:11.895Z,13.50
2018-12-01T19:33:40.532Z,14.37
2018-12-01T19:36:09.107Z,12.57
2018-12-01T19:38:37.577Z,12.40
2018-12-01T19:41:06.363Z,11.70
2018-12-01T19:43:34.888Z,13.23
2018-12-01T19:46:04.280Z,9.47
2018-12-01T19:48:32.674Z,11.50
2018-12-01T19:51:01.100Z,11.30
2018-12-01T19:53:29.611Z,10.97
2018-12-01T19:55:58.106Z,13.00
2018-12-01T19:58:28.893Z,11.43
2018-12-01T20:00:58.246Z,11.37
2018-12-01T20:03:28.062Z,11.37
2018-12-01T20:05:56.413Z,15.10
2018-12-01T20:08:27.476Z,12.40
2018-12-01T20:10:58.373Z,11.93
2018-12-01T20:13:57.745Z,10.83
2018-12-01T20:16:35.001Z,14.43
2018-12-01T20:19:04.776Z,10.57
2018-12-01T20:21:33.168Z,10.67
2018-12-01T20:24:01.610Z,10.13
2018-12-01T20:26:29.953Z,17.73
2018-12-01T20:28:58.406Z,11.60
2018-12-01T20:31:27.087Z,8.13
2018-12-01T20:33:58.239Z,12.43
2018-12-01T20:36:31.547Z,10.90
2018-12-01T20:39:10.487Z,7.30
2018-12-01T20:41:38.809Z,7.17
2018-12-01T20:44:07.812Z,11.30
2018-12-01T20:46:36.161Z,8.23
2018-12-01T20:49:04.593Z,11.37
2018-12-01T20:51:33.371Z,8.10
2018-12-01T20:54:01.939Z,6.90
2018-12-01T20:56:32.872Z,9.43
2018-12-01T20:59:01.243Z,9.50
2018-12-01T21:01:29.604Z,6.90
2018-12-01T21:03:58.999Z,6.10
2018-12-01T21:06:27.370Z,7.63
2018-12-01T21:08:55.984Z,8.63
2018-12-01T21:11:24.316Z,11.10
2018-12-01T21:13:53.298Z,8.37
2018-12-01T21:16:22.818Z,8.77
2018-12-01T21:18:51.826Z,8.43
2018-12-01T21:21:20.176Z,5.60
2018-12-01T21:23:48.678Z,6.60
2018-12-01T21:26:17.105Z,6.27
2018-12-01T21:28:45.434Z,7.03
2018-12-01T21:31:13.793Z,8.33
2018-12-01T21:33:42.290Z,7.20
2018-12-01T21:36:11.028Z,8.13
2018-12-01T21:38:39.654Z,7.80
2018-12-01T21:41:08.018Z,8.67
2018-12-01T21:43:36.501Z,8.43
2018-12-01T21:46:04.995Z,9.20
2018-12-01T21:48:33.568Z,7.63
2018-12-01T21:51:01.984Z,8.90
2018-12-01T21:53:30.373Z,8.27
2018-12-01T21:55:58.718Z,8.47
2018-12-01T21:58:27.082Z,7.07
2018-12-01T22:00:57.823Z,8.40
2018-12-01T22:03:26.883Z,7.47
2018-12-01T22:06:00.162Z,6.40
2018-12-01T22:08:28.888Z,6.83
2018-12-01T22:10:59.123Z,7.40
2018-12-01T22:13:27.930Z,6.23
2018-12-01T22:15:56.650Z,7.07
2018-12-01T22:18:25.653Z,9.77
2018-12-01T22:20:54.165Z,5.57
2018-12-01T22:23:22.445Z,5.40
2018-12-01T22:25:50.845Z,3.90
2018-12-01T22:28:19.197Z,6.43
2018-12-01T22:30:49.334Z,5.73
2018-12-01T22:33:20.490Z,5.07
2018-12-01T22:35:49.193Z,5.87
2018-12-01T22:38:17.512Z,5.20
2018-12-01T22:40:46.709Z,3.53
2018-12-01T22:43:15.180Z,5.37
2018-12-01T22:45:43.683Z,5.50
2018-12-01T22:48:13.778Z,4.87
2018-12-01T22:50:43.680Z,4.07
2018-12-01T22:53:12.134Z,5.77
2018-12-01T22:55:41.600Z,4.20
2018-12-01T22:58:12.156Z,3.80
2018-12-01T23:00:48.640Z,3.60
2018-12-01T23:03:17.184Z,4.07
2018-12-01T23:05:45.672Z,4.77
2018-12-01T23:08:15.331Z,4.60
2018-12-01T23:10:43.700Z,7.63
2018-12-01T23:13:12.102Z,5.17
2018-12-01T23:15:40.520Z,4.67
2018-12-01T23:18:13.201Z,6.03
2018-12-01T23:20:43.099Z,4.40
2018-12-01T23:23:11.418Z,5.27
2018-12-01T23:25:39.861Z,5.63
2018-12-01T23:28:08.764Z,3.70
2018-12-01T23:30:37.672Z,6.33
2018-12-01T23:33:11.562Z,5.70
2018-12-01T23:35:40.650Z,4.20
2018-12-01T23:38:09.125Z,4.40
2018-12-01T23:40:38.721Z,6.30
2018-12-01T23:43:07.116Z,2.90
2018-12-01T23:45:36.055Z,4.83
2018-12-01T23:48:04.760Z,5.37
2018-12-01T23:50:33.513Z,3.93
2018-12-01T23:53:03.574Z,3.63
2018-12-01T23:55:31.953Z,3.80
2018-12-01T23:58:00.301Z,4.87
